sensor_id;sensor_type;location;lat;lon;timestamp;temperature;humidity
20856;DHT22;10588;49.542;8.444;2022-08-11T00:00:57;31.70;26.10
20856;DHT22;10588;49.542;8.444;2022-08-11T00:03:25;31.60;26.10
20856;DHT22;10588;49.542;8.444;2022-08-11T00:05:53;31.60;26.10
20856;DHT22;10588;49.542;8.444;2022-08-11T00:08:23;31.60;26.20
20856;DHT22;10588;49.542;8.444;2022-08-11T00:10:52;31.50;26.10
20856;DHT22;10588;49.542;8.444;2022-08-11T00:13:18;31.50;26.10
20856;DHT22;10588;49.542;8.444;2022-08-11T00:15:44;31.50;26.20
20856;DHT22;10588;49.542;8.444;2022-08-11T00:18:11;31.50;26.20
20856;DHT22;10588;49.542;8.444;2022-08-11T00:20:41;31.40;26.20
20856;DHT22;10588;49.542;8.444;2022-08-11T00:23:13;31.40;26.20
20856;DHT22;10588;49.542;8.444;2022-08-11T00:25:44;31.30;26.20
20856;DHT22;10588;49.542;8.444;2022-08-11T00:28:31;31.30;26.30
20856;DHT22;10588;49.542;8.444;2022-08-11T00:31:05;31.20;26.40
20856;DHT22;10588;49.542;8.444;2022-08-11T00:33:44;31.20;26.40
20856;DHT22;10588;49.542;8.444;2022-08-11T00:36:13;31.20;26.40
20856;DHT22;10588;49.542;8.444;2022-08-11T00:54:00;31.10;26.70
20856;DHT22;10588;49.542;8.444;2022-08-11T01:02:18;30.90;26.70
20856;DHT22;10588;49.542;8.444;2022-08-11T01:17:30;30.70;27.30
20856;DHT22;10588;49.542;8.444;2022-08-11T01:23:26;30.70;27.40
20856;DHT22;10588;49.542;8.444;2022-08-11T01:32:12;30.60;27.50
20856;DHT22;10588;49.542;8.444;2022-08-11T01:41:49;30.50;27.70
20856;DHT22;10588;49.542;8.444;2022-08-11T01:53:42;30.30;28.10
20856;DHT22;10588;49.542;8.444;2022-08-11T01:56:57;30.30;28.20
20856;DHT22;10588;49.542;8.444;2022-08-11T02:00:01;30.20;28.10
20856;DHT22;10588;49.542;8.444;2022-08-11T02:02:51;30.20;28.20
20856;DHT22;10588;49.542;8.444;2022-08-11T02:05:49;30.20;28.30
20856;DHT22;10588;49.542;8.444;2022-08-11T02:11:36;30.10;28.40
20856;DHT22;10588;49.542;8.444;2022-08-11T02:20:00;30.00;28.30
20856;DHT22;10588;49.542;8.444;2022-08-11T02:23:02;29.90;28.60
20856;DHT22;10588;49.542;8.444;2022-08-11T02:26:09;30.00;28.50
20856;DHT22;10588;49.542;8.444;2022-08-11T02:29:02;29.90;28.80
20856;DHT22;10588;49.542;8.444;2022-08-11T02:35:07;29.80;28.60
20856;DHT22;10588;49.542;8.444;2022-08-11T02:37:37;29.70;28.90
20856;DHT22;10588;49.542;8.444;2022-08-11T02:40:33;29.70;28.80
20856;DHT22;10588;49.542;8.444;2022-08-11T02:46:18;29.60;29.60
20856;DHT22;10588;49.542;8.444;2022-08-11T02:48:55;29.60;29.20
20856;DHT22;10588;49.542;8.444;2022-08-11T02:51:47;29.50;29.20
20856;DHT22;10588;49.542;8.444;2022-08-11T02:55:01;29.50;29.00
20856;DHT22;10588;49.542;8.444;2022-08-11T02:57:46;29.50;29.40
20856;DHT22;10588;49.542;8.444;2022-08-11T03:00:19;29.60;29.40
20856;DHT22;10588;49.542;8.444;2022-08-11T03:12:18;29.30;29.50
20856;DHT22;10588;49.542;8.444;2022-08-11T03:15:40;29.30;29.60
20856;DHT22;10588;49.542;8.444;2022-08-11T03:21:34;29.20;29.70
20856;DHT22;10588;49.542;8.444;2022-08-11T03:30:24;29.20;30.00
20856;DHT22;10588;49.542;8.444;2022-08-11T03:33:18;29.00;29.90
20856;DHT22;10588;49.542;8.444;2022-08-11T03:42:19;28.90;30.00
20856;DHT22;10588;49.542;8.444;2022-08-11T03:44:55;28.90;29.80
20856;DHT22;10588;49.542;8.444;2022-08-11T03:48:22;28.80;29.90
20856;DHT22;10588;49.542;8.444;2022-08-11T03:56:45;28.50;30.10
20856;DHT22;10588;49.542;8.444;2022-08-11T04:03:14;28.40;30.10
20856;DHT22;10588;49.542;8.444;2022-08-11T04:21:14;28.40;30.60
20856;DHT22;10588;49.542;8.444;2022-08-11T04:30:16;28.20;30.80
20856;DHT22;10588;49.542;8.444;2022-08-11T04:38:56;28.10;30.90
20856;DHT22;10588;49.542;8.444;2022-08-11T04:44:49;28.00;31.00
20856;DHT22;10588;49.542;8.444;2022-08-11T04:54:39;28.00;31.50
20856;DHT22;10588;49.542;8.444;2022-08-11T04:58:00;27.90;31.40
20856;DHT22;10588;49.542;8.444;2022-08-11T05:17:21;27.70;31.60
20856;DHT22;10588;49.542;8.444;2022-08-11T05:20:38;27.60;31.70
20856;DHT22;10588;49.542;8.444;2022-08-11T05:27:10;27.60;32.00
20856;DHT22;10588;49.542;8.444;2022-08-11T05:30:06;27.50;32.00
20856;DHT22;10588;49.542;8.444;2022-08-11T05:33:24;27.60;31.90
20856;DHT22;10588;49.542;8.444;2022-08-11T05:39:38;27.50;32.30
20856;DHT22;10588;49.542;8.444;2022-08-11T05:42:55;27.50;32.20
20856;DHT22;10588;49.542;8.444;2022-08-11T05:46:02;27.50;32.40
20856;DHT22;10588;49.542;8.444;2022-08-11T05:48:53;27.40;32.30
20856;DHT22;10588;49.542;8.444;2022-08-11T05:51:50;27.40;32.20
20856;DHT22;10588;49.542;8.444;2022-08-11T05:54:48;27.40;32.30
20856;DHT22;10588;49.542;8.444;2022-08-11T06:00:52;27.30;32.50
20856;DHT22;10588;49.542;8.444;2022-08-11T06:03:53;27.30;32.50
20856;DHT22;10588;49.542;8.444;2022-08-11T06:07:29;27.30;32.40
20856;DHT22;10588;49.542;8.444;2022-08-11T06:10:40;27.30;32.80
20856;DHT22;10588;49.542;8.444;2022-08-11T06:13:59;27.30;32.80
20856;DHT22;10588;49.542;8.444;2022-08-11T06:19:38;27.10;32.50
20856;DHT22;10588;49.542;8.444;2022-08-11T06:22:10;27.20;32.70
20856;DHT22;10588;49.542;8.444;2022-08-11T06:24:40;27.20;32.70
20856;DHT22;10588;49.542;8.444;2022-08-11T06:27:09;27.20;32.80
20856;DHT22;10588;49.542;8.444;2022-08-11T06:29:49;27.20;32.80
20856;DHT22;10588;49.542;8.444;2022-08-11T06:32:31;27.20;33.20
20856;DHT22;10588;49.542;8.444;2022-08-11T06:40:45;27.10;33.30
20856;DHT22;10588;49.542;8.444;2022-08-11T06:44:05;27.10;33.20
20856;DHT22;10588;49.542;8.444;2022-08-11T06:46:46;27.20;33.40
20856;DHT22;10588;49.542;8.444;2022-08-11T06:49:36;27.10;33.10
20856;DHT22;10588;49.542;8.444;2022-08-11T06:52:35;27.20;33.50
20856;DHT22;10588;49.542;8.444;2022-08-11T06:55:33;27.20;33.40
20856;DHT22;10588;49.542;8.444;2022-08-11T06:58:21;27.20;33.50
20856;DHT22;10588;49.542;8.444;2022-08-11T07:01:14;27.20;33.30
20856;DHT22;10588;49.542;8.444;2022-08-11T07:03:48;27.10;33.40
20856;DHT22;10588;49.542;8.444;2022-08-11T07:10:23;27.20;33.80
20856;DHT22;10588;49.542;8.444;2022-08-11T07:13:20;27.20;33.70
20856;DHT22;10588;49.542;8.444;2022-08-11T07:19:39;27.20;33.80
20856;DHT22;10588;49.542;8.444;2022-08-11T07:22:32;27.20;33.70
20856;DHT22;10588;49.542;8.444;2022-08-11T07:25:21;27.30;33.80
20856;DHT22;10588;49.542;8.444;2022-08-11T07:28:11;27.40;33.70
20856;DHT22;10588;49.542;8.444;2022-08-11T07:31:09;27.30;33.90
20856;DHT22;10588;49.542;8.444;2022-08-11T07:34:21;27.30;34.00
20856;DHT22;10588;49.542;8.444;2022-08-11T07:36:59;27.30;34.00
20856;DHT22;10588;49.542;8.444;2022-08-11T07:39:31;27.40;34.00
20856;DHT22;10588;49.542;8.444;2022-08-11T07:42:10;27.40;34.00
20856;DHT22;10588;49.542;8.444;2022-08-11T07:44:42;27.50;34.10
20856;DHT22;10588;49.542;8.444;2022-08-11T07:47:34;27.40;34.10
20856;DHT22;10588;49.542;8.444;2022-08-11T07:50:22;27.60;34.10
20856;DHT22;10588;49.542;8.444;2022-08-11T07:53:16;27.60;34.10
20856;DHT22;10588;49.542;8.444;2022-08-11T07:55:48;27.60;34.30
20856;DHT22;10588;49.542;8.444;2022-08-11T07:58:23;27.60;34.10
20856;DHT22;10588;49.542;8.444;2022-08-11T08:01:18;27.60;34.10
20856;DHT22;10588;49.542;8.444;2022-08-11T08:04:11;27.60;34.40
20856;DHT22;10588;49.542;8.444;2022-08-11T08:06:58;27.60;34.30
20856;DHT22;10588;49.542;8.444;2022-08-11T08:09:44;27.70;34.30
20856;DHT22;10588;49.542;8.444;2022-08-11T08:12:29;27.80;34.30
20856;DHT22;10588;49.542;8.444;2022-08-11T08:15:33;27.70;34.20
20856;DHT22;10588;49.542;8.444;2022-08-11T08:21:07;27.80;34.20
20856;DHT22;10588;49.542;8.444;2022-08-11T08:23:44;27.90;34.10
20856;DHT22;10588;49.542;8.444;2022-08-11T08:26:24;27.80;34.00
20856;DHT22;10588;49.542;8.444;2022-08-11T08:29:15;27.90;34.30
20856;DHT22;10588;49.542;8.444;2022-08-11T08:32:10;28.00;34.20
20856;DHT22;10588;49.542;8.444;2022-08-11T08:34:43;28.00;34.00
20856;DHT22;10588;49.542;8.444;2022-08-11T08:37:19;28.00;33.90
20856;DHT22;10588;49.542;8.444;2022-08-11T08:40:19;28.10;33.90
20856;DHT22;10588;49.542;8.444;2022-08-11T08:45:55;28.00;33.60
20856;DHT22;10588;49.542;8.444;2022-08-11T08:48:29;28.20;33.70
20856;DHT22;10588;49.542;8.444;2022-08-11T08:54:17;28.30;33.50
20856;DHT22;10588;49.542;8.444;2022-08-11T08:57:04;28.40;33.40
20856;DHT22;10588;49.542;8.444;2022-08-11T08:59:43;28.50;33.40
20856;DHT22;10588;49.542;8.444;2022-08-11T09:02:09;28.50;34.00
20856;DHT22;10588;49.542;8.444;2022-08-11T09:04:45;28.60;33.30
20856;DHT22;10588;49.542;8.444;2022-08-11T09:07:26;28.60;33.10
20856;DHT22;10588;49.542;8.444;2022-08-11T09:10:28;28.50;33.00
20856;DHT22;10588;49.542;8.444;2022-08-11T09:12:57;28.70;33.00
20856;DHT22;10588;49.542;8.444;2022-08-11T09:15:44;28.70;33.30
20856;DHT22;10588;49.542;8.444;2022-08-11T09:18:10;28.70;32.90
20856;DHT22;10588;49.542;8.444;2022-08-11T09:20:37;28.80;32.90
20856;DHT22;10588;49.542;8.444;2022-08-11T09:23:23;28.90;32.80
20856;DHT22;10588;49.542;8.444;2022-08-11T09:26:29;28.90;32.70
20856;DHT22;10588;49.542;8.444;2022-08-11T09:29:17;29.00;32.60
20856;DHT22;10588;49.542;8.444;2022-08-11T09:32:17;29.10;32.70
20856;DHT22;10588;49.542;8.444;2022-08-11T09:34:54;29.00;32.50
20856;DHT22;10588;49.542;8.444;2022-08-11T09:37:35;29.10;32.40
20856;DHT22;10588;49.542;8.444;2022-08-11T09:40:32;29.20;32.40
20856;DHT22;10588;49.542;8.444;2022-08-11T09:43:04;29.30;32.30
20856;DHT22;10588;49.542;8.444;2022-08-11T09:45:51;29.30;32.30
20856;DHT22;10588;49.542;8.444;2022-08-11T09:48:25;29.40;32.20
20856;DHT22;10588;49.542;8.444;2022-08-11T09:50:58;29.40;32.10
20856;DHT22;10588;49.542;8.444;2022-08-11T09:53:41;29.50;32.10
20856;DHT22;10588;49.542;8.444;2022-08-11T09:56:42;29.60;32.10
20856;DHT22;10588;49.542;8.444;2022-08-11T09:59:29;29.60;31.80
20856;DHT22;10588;49.542;8.444;2022-08-11T10:02:07;29.60;31.80
20856;DHT22;10588;49.542;8.444;2022-08-11T10:04:56;29.70;31.70
20856;DHT22;10588;49.542;8.444;2022-08-11T10:07:44;29.70;31.50
20856;DHT22;10588;49.542;8.444;2022-08-11T10:10:18;29.80;32.00
20856;DHT22;10588;49.542;8.444;2022-08-11T10:13:03;29.90;31.30
20856;DHT22;10588;49.542;8.444;2022-08-11T10:15:36;29.90;31.10
20856;DHT22;10588;49.542;8.444;2022-08-11T10:21:08;30.00;31.10
20856;DHT22;10588;49.542;8.444;2022-08-11T10:23:36;30.00;31.00
20856;DHT22;10588;49.542;8.444;2022-08-11T10:26:22;30.00;30.90
20856;DHT22;10588;49.542;8.444;2022-08-11T10:29:11;30.10;30.80
20856;DHT22;10588;49.542;8.444;2022-08-11T10:31:57;30.10;30.60
20856;DHT22;10588;49.542;8.444;2022-08-11T10:34:49;30.20;30.70
20856;DHT22;10588;49.542;8.444;2022-08-11T10:37:21;30.20;30.40
20856;DHT22;10588;49.542;8.444;2022-08-11T10:39:53;30.30;30.30
20856;DHT22;10588;49.542;8.444;2022-08-11T10:42:43;30.40;30.20
20856;DHT22;10588;49.542;8.444;2022-08-11T10:45:35;30.40;30.00
20856;DHT22;10588;49.542;8.444;2022-08-11T10:48:24;30.40;29.90
20856;DHT22;10588;49.542;8.444;2022-08-11T10:50:54;30.50;30.00
20856;DHT22;10588;49.542;8.444;2022-08-11T10:53:44;30.50;29.90
20856;DHT22;10588;49.542;8.444;2022-08-11T10:56:30;30.70;29.80
20856;DHT22;10588;49.542;8.444;2022-08-11T10:59:15;30.70;29.70
20856;DHT22;10588;49.542;8.444;2022-08-11T11:01:42;30.80;29.70
20856;DHT22;10588;49.542;8.444;2022-08-11T11:08:17;30.80;29.20
20856;DHT22;10588;49.542;8.444;2022-08-11T11:10:25;30.90;29.20
20856;DHT22;10588;49.542;8.444;2022-08-11T11:12:57;30.90;29.40
20856;DHT22;10588;49.542;8.444;2022-08-11T11:15:54;31.00;29.30
20856;DHT22;10588;49.542;8.444;2022-08-11T11:18:38;31.10;29.10
20856;DHT22;10588;49.542;8.444;2022-08-11T11:21:30;31.10;29.00
20856;DHT22;10588;49.542;8.444;2022-08-11T11:24:36;31.10;28.50
20856;DHT22;10588;49.542;8.444;2022-08-11T11:27:39;31.20;28.50
20856;DHT22;10588;49.542;8.444;2022-08-11T11:30:12;31.20;28.50
20856;DHT22;10588;49.542;8.444;2022-08-11T11:35:59;31.30;28.30
20856;DHT22;10588;49.542;8.444;2022-08-11T11:41:23;31.50;28.50
20856;DHT22;10588;49.542;8.444;2022-08-11T11:43:56;31.60;28.40
20856;DHT22;10588;49.542;8.444;2022-08-11T11:46:35;31.60;28.10
20856;DHT22;10588;49.542;8.444;2022-08-11T11:49:09;31.60;28.00
20856;DHT22;10588;49.542;8.444;2022-08-11T11:51:39;31.60;28.10
20856;DHT22;10588;49.542;8.444;2022-08-11T11:54:12;31.70;28.00
20856;DHT22;10588;49.542;8.444;2022-08-11T11:56:38;31.70;28.00
20856;DHT22;10588;49.542;8.444;2022-08-11T11:59:09;31.90;28.10
20856;DHT22;10588;49.542;8.444;2022-08-11T12:01:57;31.90;28.10
20856;DHT22;10588;49.542;8.444;2022-08-11T12:04:27;31.90;28.50
20856;DHT22;10588;49.542;8.444;2022-08-11T12:07:01;32.00;28.00
20856;DHT22;10588;49.542;8.444;2022-08-11T12:09:54;32.00;27.80
20856;DHT22;10588;49.542;8.444;2022-08-11T12:12:26;32.10;27.70
20856;DHT22;10588;49.542;8.444;2022-08-11T12:15:32;32.20;27.80
20856;DHT22;10588;49.542;8.444;2022-08-11T12:18:00;32.20;27.80
20856;DHT22;10588;49.542;8.444;2022-08-11T12:20:38;32.30;27.80
20856;DHT22;10588;49.542;8.444;2022-08-11T12:23:04;32.40;27.70
20856;DHT22;10588;49.542;8.444;2022-08-11T12:26:11;32.40;27.70
20856;DHT22;10588;49.542;8.444;2022-08-11T12:28:54;32.50;27.60
20856;DHT22;10588;49.542;8.444;2022-08-11T12:31:29;32.60;27.60
20856;DHT22;10588;49.542;8.444;2022-08-11T12:34:09;32.70;27.50
20856;DHT22;10588;49.542;8.444;2022-08-11T12:36:50;32.70;27.40
20856;DHT22;10588;49.542;8.444;2022-08-11T12:39:37;32.80;27.50
20856;DHT22;10588;49.542;8.444;2022-08-11T12:42:22;32.80;27.40
20856;DHT22;10588;49.542;8.444;2022-08-11T12:45:21;32.90;27.40
20856;DHT22;10588;49.542;8.444;2022-08-11T12:48:09;32.90;27.40
20856;DHT22;10588;49.542;8.444;2022-08-11T12:51:10;33.00;27.40
20856;DHT22;10588;49.542;8.444;2022-08-11T12:54:00;33.10;27.20
20856;DHT22;10588;49.542;8.444;2022-08-11T12:56:45;33.10;27.80
20856;DHT22;10588;49.542;8.444;2022-08-11T12:59:40;33.20;27.30
20856;DHT22;10588;49.542;8.444;2022-08-11T13:02:28;33.30;27.40
20856;DHT22;10588;49.542;8.444;2022-08-11T13:05:16;33.20;27.30
20856;DHT22;10588;49.542;8.444;2022-08-11T13:07:43;33.30;27.40
20856;DHT22;10588;49.542;8.444;2022-08-11T13:10:23;33.40;27.30
20856;DHT22;10588;49.542;8.444;2022-08-11T13:13:25;33.40;27.20
20856;DHT22;10588;49.542;8.444;2022-08-11T13:15:52;33.60;27.30
20856;DHT22;10588;49.542;8.444;2022-08-11T13:18:22;33.60;27.40
20856;DHT22;10588;49.542;8.444;2022-08-11T13:21:12;33.70;27.40
20856;DHT22;10588;49.542;8.444;2022-08-11T13:23:40;33.70;27.00
20856;DHT22;10588;49.542;8.444;2022-08-11T13:26:09;33.80;27.30
20856;DHT22;10588;49.542;8.444;2022-08-11T13:28:47;33.80;27.00
20856;DHT22;10588;49.542;8.444;2022-08-11T13:31:14;33.90;26.90
20856;DHT22;10588;49.542;8.444;2022-08-11T13:33:58;34.00;27.00
20856;DHT22;10588;49.542;8.444;2022-08-11T13:36:30;34.00;26.50
20856;DHT22;10588;49.542;8.444;2022-08-11T13:38:56;34.00;26.70
20856;DHT22;10588;49.542;8.444;2022-08-11T13:41:27;34.10;26.70
20856;DHT22;10588;49.542;8.444;2022-08-11T13:44:28;34.10;26.50
20856;DHT22;10588;49.542;8.444;2022-08-11T13:47:07;34.30;26.60
20856;DHT22;10588;49.542;8.444;2022-08-11T13:49:35;34.30;26.40
20856;DHT22;10588;49.542;8.444;2022-08-11T13:52:20;34.30;26.40
20856;DHT22;10588;49.542;8.444;2022-08-11T13:54:53;34.40;26.10
20856;DHT22;10588;49.542;8.444;2022-08-11T13:57:26;34.50;26.20
20856;DHT22;10588;49.542;8.444;2022-08-11T13:59:57;34.50;26.20
20856;DHT22;10588;49.542;8.444;2022-08-11T14:02:38;34.60;26.20
20856;DHT22;10588;49.542;8.444;2022-08-11T14:05:14;34.60;26.10
20856;DHT22;10588;49.542;8.444;2022-08-11T14:08:18;34.70;25.90
20856;DHT22;10588;49.542;8.444;2022-08-11T14:10:52;34.80;25.90
20856;DHT22;10588;49.542;8.444;2022-08-11T14:13:40;34.80;26.00
20856;DHT22;10588;49.542;8.444;2022-08-11T14:16:18;34.90;25.90
20856;DHT22;10588;49.542;8.444;2022-08-11T14:18:46;34.90;25.70
20856;DHT22;10588;49.542;8.444;2022-08-11T14:21:20;35.00;25.80
20856;DHT22;10588;49.542;8.444;2022-08-11T14:24:09;35.00;25.60
20856;DHT22;10588;49.542;8.444;2022-08-11T14:26:39;35.20;25.70
20856;DHT22;10588;49.542;8.444;2022-08-11T14:29:20;35.30;25.80
20856;DHT22;10588;49.542;8.444;2022-08-11T14:31:56;35.20;25.60
20856;DHT22;10588;49.542;8.444;2022-08-11T14:34:38;35.30;25.50
20856;DHT22;10588;49.542;8.444;2022-08-11T14:37:12;35.30;25.40
20856;DHT22;10588;49.542;8.444;2022-08-11T14:39:53;35.50;25.40
20856;DHT22;10588;49.542;8.444;2022-08-11T14:42:22;35.50;25.30
20856;DHT22;10588;49.542;8.444;2022-08-11T14:45:15;35.50;25.30
20856;DHT22;10588;49.542;8.444;2022-08-11T14:48:15;35.60;25.30
20856;DHT22;10588;49.542;8.444;2022-08-11T14:50:41;35.70;25.00
20856;DHT22;10588;49.542;8.444;2022-08-11T14:53:12;35.90;25.30
20856;DHT22;10588;49.542;8.444;2022-08-11T14:55:41;35.70;25.00
20856;DHT22;10588;49.542;8.444;2022-08-11T14:58:28;35.80;25.00
20856;DHT22;10588;49.542;8.444;2022-08-11T15:01:29;35.80;24.90
20856;DHT22;10588;49.542;8.444;2022-08-11T15:04:26;35.90;24.70
20856;DHT22;10588;49.542;8.444;2022-08-11T15:06:58;35.90;24.50
20856;DHT22;10588;49.542;8.444;2022-08-11T15:09:24;35.90;24.60
20856;DHT22;10588;49.542;8.444;2022-08-11T15:11:52;36.00;24.60
20856;DHT22;10588;49.542;8.444;2022-08-11T15:14:41;36.10;24.50
20856;DHT22;10588;49.542;8.444;2022-08-11T15:17:26;36.10;24.30
20856;DHT22;10588;49.542;8.444;2022-08-11T15:20:07;36.20;24.50
20856;DHT22;10588;49.542;8.444;2022-08-11T15:22:55;36.20;24.20
20856;DHT22;10588;49.542;8.444;2022-08-11T15:25:47;36.20;24.30
20856;DHT22;10588;49.542;8.444;2022-08-11T15:28:21;36.30;24.30
20856;DHT22;10588;49.542;8.444;2022-08-11T15:31:06;36.20;24.10
20856;DHT22;10588;49.542;8.444;2022-08-11T15:34:21;36.40;24.30
20856;DHT22;10588;49.542;8.444;2022-08-11T15:37:10;36.40;24.00
20856;DHT22;10588;49.542;8.444;2022-08-11T15:43:25;36.50;23.90
20856;DHT22;10588;49.542;8.444;2022-08-11T15:46:29;36.50;23.80
20856;DHT22;10588;49.542;8.444;2022-08-11T15:49:22;36.60;23.90
20856;DHT22;10588;49.542;8.444;2022-08-11T15:54:31;36.60;23.60
20856;DHT22;10588;49.542;8.444;2022-08-11T15:57:27;36.70;23.70
20856;DHT22;10588;49.542;8.444;2022-08-11T16:00:14;36.80;23.50
20856;DHT22;10588;49.542;8.444;2022-08-11T16:02:59;36.80;23.70
20856;DHT22;10588;49.542;8.444;2022-08-11T16:05:44;36.80;23.60
20856;DHT22;10588;49.542;8.444;2022-08-11T16:08:14;36.80;23.50
20856;DHT22;10588;49.542;8.444;2022-08-11T16:10:41;36.80;23.30
20856;DHT22;10588;49.542;8.444;2022-08-11T16:13:23;36.80;23.30
20856;DHT22;10588;49.542;8.444;2022-08-11T16:15:54;36.80;23.00
20856;DHT22;10588;49.542;8.444;2022-08-11T16:18:46;36.90;23.30
20856;DHT22;10588;49.542;8.444;2022-08-11T16:21:25;36.90;23.10
20856;DHT22;10588;49.542;8.444;2022-08-11T16:23:55;36.90;23.20
20856;DHT22;10588;49.542;8.444;2022-08-11T16:26:22;37.00;23.20
20856;DHT22;10588;49.542;8.444;2022-08-11T16:28:54;37.00;23.20
20856;DHT22;10588;49.542;8.444;2022-08-11T16:31:23;37.00;23.00
20856;DHT22;10588;49.542;8.444;2022-08-11T16:33:53;37.00;22.90
20856;DHT22;10588;49.542;8.444;2022-08-11T16:36:24;37.10;22.90
20856;DHT22;10588;49.542;8.444;2022-08-11T16:39:11;37.20;23.00
20856;DHT22;10588;49.542;8.444;2022-08-11T16:41:38;37.10;22.90
20856;DHT22;10588;49.542;8.444;2022-08-11T16:44:24;37.10;22.90
20856;DHT22;10588;49.542;8.444;2022-08-11T16:47:15;37.20;22.90
20856;DHT22;10588;49.542;8.444;2022-08-11T16:49:47;37.20;22.70
20856;DHT22;10588;49.542;8.444;2022-08-11T16:52:17;37.20;22.80
20856;DHT22;10588;49.542;8.444;2022-08-11T16:54:44;37.20;22.70
20856;DHT22;10588;49.542;8.444;2022-08-11T16:57:16;37.20;22.80
20856;DHT22;10588;49.542;8.444;2022-08-11T17:00:04;37.20;22.70
20856;DHT22;10588;49.542;8.444;2022-08-11T17:02:39;37.20;22.70
20856;DHT22;10588;49.542;8.444;2022-08-11T17:05:25;37.30;22.60
20856;DHT22;10588;49.542;8.444;2022-08-11T17:08:12;37.30;23.30
20856;DHT22;10588;49.542;8.444;2022-08-11T17:11:05;37.30;22.80
20856;DHT22;10588;49.542;8.444;2022-08-11T17:13:56;37.20;22.70
20856;DHT22;10588;49.542;8.444;2022-08-11T17:16:36;37.30;22.70
20856;DHT22;10588;49.542;8.444;2022-08-11T17:19:23;37.30;22.50
20856;DHT22;10588;49.542;8.444;2022-08-11T17:21:50;37.30;22.50
20856;DHT22;10588;49.542;8.444;2022-08-11T17:24:39;37.30;22.60
20856;DHT22;10588;49.542;8.444;2022-08-11T17:27:07;37.30;22.50
20856;DHT22;10588;49.542;8.444;2022-08-11T17:29:38;37.30;22.60
20856;DHT22;10588;49.542;8.444;2022-08-11T17:35:21;37.30;22.50
20856;DHT22;10588;49.542;8.444;2022-08-11T17:38:19;37.30;22.40
20856;DHT22;10588;49.542;8.444;2022-08-11T17:40:54;37.30;22.40
20856;DHT22;10588;49.542;8.444;2022-08-11T17:43:40;37.30;22.90
20856;DHT22;10588;49.542;8.444;2022-08-11T17:46:37;37.30;22.50
20856;DHT22;10588;49.542;8.444;2022-08-11T17:49:28;37.30;22.30
20856;DHT22;10588;49.542;8.444;2022-08-11T17:52:05;37.30;22.30
20856;DHT22;10588;49.542;8.444;2022-08-11T17:54:50;37.30;22.40
20856;DHT22;10588;49.542;8.444;2022-08-11T17:57:40;37.30;22.40
20856;DHT22;10588;49.542;8.444;2022-08-11T18:00:24;37.30;22.30
20856;DHT22;10588;49.542;8.444;2022-08-11T18:03:01;37.20;22.40
20856;DHT22;10588;49.542;8.444;2022-08-11T18:05:52;37.40;22.40
20856;DHT22;10588;49.542;8.444;2022-08-11T18:08:27;37.20;22.40
20856;DHT22;10588;49.542;8.444;2022-08-11T18:11:16;37.20;22.30
20856;DHT22;10588;49.542;8.444;2022-08-11T18:14:03;37.20;22.40
20856;DHT22;10588;49.542;8.444;2022-08-11T18:17:09;37.20;22.40
20856;DHT22;10588;49.542;8.444;2022-08-11T18:19:56;37.20;22.40
20856;DHT22;10588;49.542;8.444;2022-08-11T18:22:43;37.10;22.40
20856;DHT22;10588;49.542;8.444;2022-08-11T18:25:41;37.00;22.40
20856;DHT22;10588;49.542;8.444;2022-08-11T18:28:44;37.10;22.40
20856;DHT22;10588;49.542;8.444;2022-08-11T18:31:33;37.00;22.40
20856;DHT22;10588;49.542;8.444;2022-08-11T18:34:29;37.00;22.50
20856;DHT22;10588;49.542;8.444;2022-08-11T18:37:22;36.90;22.50
20856;DHT22;10588;49.542;8.444;2022-08-11T18:40:11;36.90;22.50
20856;DHT22;10588;49.542;8.444;2022-08-11T18:43:06;36.80;22.60
20856;DHT22;10588;49.542;8.444;2022-08-11T18:45:55;36.80;22.60
20856;DHT22;10588;49.542;8.444;2022-08-11T18:48:51;36.70;22.70
20856;DHT22;10588;49.542;8.444;2022-08-11T18:51:37;36.70;23.20
20856;DHT22;10588;49.542;8.444;2022-08-11T18:54:23;36.70;22.80
20856;DHT22;10588;49.542;8.444;2022-08-11T18:57:12;36.60;22.80
20856;DHT22;10588;49.542;8.444;2022-08-11T19:00:04;36.60;22.80
20856;DHT22;10588;49.542;8.444;2022-08-11T19:03:02;36.50;23.00
20856;DHT22;10588;49.542;8.444;2022-08-11T19:06:01;36.60;23.60
20856;DHT22;10588;49.542;8.444;2022-08-11T19:08:52;36.40;23.10
20856;DHT22;10588;49.542;8.444;2022-08-11T19:11:40;36.40;23.20
20856;DHT22;10588;49.542;8.444;2022-08-11T19:14:25;36.30;23.30
20856;DHT22;10588;49.542;8.444;2022-08-11T19:17:11;36.30;23.40
20856;DHT22;10588;49.542;8.444;2022-08-11T19:20:05;36.30;23.50
20856;DHT22;10588;49.542;8.444;2022-08-11T19:22:51;36.20;23.50
20856;DHT22;10588;49.542;8.444;2022-08-11T19:25:38;36.10;23.60
20856;DHT22;10588;49.542;8.444;2022-08-11T19:28:23;36.10;23.70
20856;DHT22;10588;49.542;8.444;2022-08-11T19:31:12;36.00;23.80
20856;DHT22;10588;49.542;8.444;2022-08-11T19:33:58;36.00;23.80
20856;DHT22;10588;49.542;8.444;2022-08-11T19:36:47;35.90;23.90
20856;DHT22;10588;49.542;8.444;2022-08-11T19:39:35;35.90;24.20
20856;DHT22;10588;49.542;8.444;2022-08-11T19:42:20;35.80;24.20
20856;DHT22;10588;49.542;8.444;2022-08-11T19:45:07;35.80;24.30
20856;DHT22;10588;49.542;8.444;2022-08-11T19:47:56;35.80;24.30
20856;DHT22;10588;49.542;8.444;2022-08-11T19:50:41;35.70;24.40
20856;DHT22;10588;49.542;8.444;2022-08-11T19:53:27;35.50;24.40
20856;DHT22;10588;49.542;8.444;2022-08-11T19:56:12;35.60;24.50
20856;DHT22;10588;49.542;8.444;2022-08-11T19:58:57;35.50;24.50
20856;DHT22;10588;49.542;8.444;2022-08-11T20:01:46;35.50;24.60
20856;DHT22;10588;49.542;8.444;2022-08-11T20:04:30;35.50;24.70
20856;DHT22;10588;49.542;8.444;2022-08-11T20:07:15;35.30;24.70
20856;DHT22;10588;49.542;8.444;2022-08-11T20:10:03;35.30;24.80
20856;DHT22;10588;49.542;8.444;2022-08-11T20:12:49;35.20;24.90
20856;DHT22;10588;49.542;8.444;2022-08-11T20:15:35;35.20;25.00
20856;DHT22;10588;49.542;8.444;2022-08-11T20:18:21;35.10;25.00
20856;DHT22;10588;49.542;8.444;2022-08-11T20:21:30;35.00;25.00
20856;DHT22;10588;49.542;8.444;2022-08-11T20:24:17;35.00;25.20
20856;DHT22;10588;49.542;8.444;2022-08-11T20:27:03;35.00;25.20
20856;DHT22;10588;49.542;8.444;2022-08-11T20:29:48;34.90;25.20
20856;DHT22;10588;49.542;8.444;2022-08-11T20:32:33;34.80;25.30
20856;DHT22;10588;49.542;8.444;2022-08-11T20:35:22;34.80;25.30
20856;DHT22;10588;49.542;8.444;2022-08-11T20:38:08;34.80;25.40
20856;DHT22;10588;49.542;8.444;2022-08-11T20:40:53;34.70;25.90
20856;DHT22;10588;49.542;8.444;2022-08-11T20:43:38;34.80;25.50
20856;DHT22;10588;49.542;8.444;2022-08-11T20:46:24;34.60;25.50
20856;DHT22;10588;49.542;8.444;2022-08-11T20:49:12;34.60;25.50
20856;DHT22;10588;49.542;8.444;2022-08-11T20:52:01;34.50;25.60
20856;DHT22;10588;49.542;8.444;2022-08-11T20:54:52;34.40;25.60
20856;DHT22;10588;49.542;8.444;2022-08-11T20:57:37;34.40;25.70